Hitchin, United Kingdom
Current Conditions -  °F | °C
As of 12:20 PM on Saturday 01 Nov 2014 (Local Time) from EGGW Reporting Station
Few Clouds Few Clouds  
Wind Chill: 59°   Ceiling: Unl
Heat Index: 59°   Visibility: 6mi
Dew Point: 50°   Wind: 12mph
Humidity: 72%   Direction: 210°SSW
Pressure: 29.97"   Gusts: NA
Location:  52.04°N, 0.27°W
Report Text: EGGW 011220Z 21010KT 170V250 9999 FEW020 15/10 Q1015
Loading
Personal Weather Stations






























Interactive Weather Map
Tropical Storm Tracking
New forecast layout! Learn more

10-Day Weather Forecast

Advertisements
Track Severe Weather on mobile